Time;durP1;ratioP1;P1;durP2;ratioP2;P2;SDS_P1;SDS_P2;PMS_P1;PMS_P2;Temp;Humidity;BMP_temperature;BMP_pressure;BME280_temperature;BME280_humidity;BME280_pressure;Samples;Min_cycle;Max_cycle;Signal;HPM_P1;HPM_P2
2021/01/25 00:02:24;;;;;;;49.35;46.55;;;;;;;11.83;36.09;98287.50;4393258;32;34435;-84
2021/01/25 00:04:51;;;;;;;49.38;46.58;;;;;;;11.92;36.47;98285.25;4380646;32;34173;-84
2021/01/25 00:07:18;;;;;;;49.92;46.88;;;;;;;11.33;37.55;98286.06;4390968;32;35432;-85
2021/01/25 00:09:45;;;;;;;49.70;46.90;;;;;;;11.08;38.35;98278.81;4407078;32;33402;-84
2021/01/25 00:12:13;;;;;;;49.10;46.30;;;;;;;11.26;38.28;98289.94;4380460;32;34343;-84
2021/01/25 00:14:40;;;;;;;49.00;46.20;;;;;;;10.82;39.25;98289.75;4392904;32;35504;-85
2021/01/25 00:17:08;;;;;;;49.60;46.70;;;;;;;10.76;39.44;98287.47;4406703;32;33649;-85
2021/01/25 00:19:38;;;;;;;49.53;46.72;;;;;;;11.00;38.94;98287.03;4380802;32;33438;-85
2021/01/25 00:22:05;;;;;;;50.05;47.15;;;;;;;11.08;38.90;98278.81;4392634;32;34880;-86
2021/01/25 00:24:32;;;;;;;50.40;47.53;;;;;;;11.33;38.49;98283.47;4379917;32;34495;-86
2021/01/25 00:26:59;;;;;;;49.75;46.90;;;;;;;11.02;39.06;98275.62;4406764;32;33726;-85
2021/01/25 00:29:26;;;;;;;50.05;47.13;;;;;;;11.05;38.93;98274.59;4393235;32;33224;-86
2021/01/25 00:31:54;;;;;;;49.05;46.17;;;;;;;11.00;39.16;98282.66;4392666;32;33898;-85
2021/01/25 00:34:22;;;;;;;49.95;47.03;;;;;;;11.42;38.55;98282.06;4368149;32;32261;-85
2021/01/25 00:36:49;;;;;;;49.67;46.78;;;;;;;11.15;38.80;98272.31;4380798;32;33486;-84
2021/01/25 00:39:16;;;;;;;49.67;46.78;;;;;;;10.87;39.32;98281.66;4405144;32;33731;-86
2021/01/25 00:41:44;;;;;;;49.45;46.65;;;;;;;11.00;38.87;98285.25;4380710;32;34149;-85
2021/01/25 00:44:11;;;;;;;49.13;46.22;;;;;;;11.31;37.74;98288.75;4380416;32;34185;-86
2021/01/25 00:46:38;;;;;;;48.85;46.13;;;;;;;10.76;38.44;98284.88;4380285;32;34893;-85
2021/01/25 00:49:06;;;;;;;49.42;46.53;;;;;;;11.04;37.91;98288.56;4379902;32;33868;-85
2021/01/25 00:51:33;;;;;;;49.38;46.58;;;;;;;11.28;36.55;98275.06;4392829;32;34171;-85
2021/01/25 00:54:00;;;;;;;49.85;47.05;;;;;;;10.80;36.80;98286.37;4407064;32;33733;-86
2021/01/25 00:56:28;;;;;;;50.10;47.20;;;;;;;11.01;37.11;98292.16;4379983;32;33855;-85
2021/01/25 00:58:56;;;;;;;49.70;46.80;;;;;;;10.93;36.24;98291.75;4410249;32;33370;-86
2021/01/25 01:01:23;;;;;;;48.87;46.10;;;;;;;10.91;36.64;98279.75;4383523;32;34044;-83
2021/01/25 01:03:51;;;;;;;49.83;46.92;;;;;;;10.50;36.72;98292.34;4406938;32;36502;-85
2021/01/25 01:06:18;;;;;;;48.87;46.08;;;;;;;11.26;35.01;98277.75;4392598;32;33742;-86
2021/01/25 01:08:45;;;;;;;48.67;45.88;;;;;;;11.23;35.06;98282.31;4406257;32;33390;-85
2021/01/25 01:11:12;;;;;;;49.28;46.47;;;;;;;10.87;34.47;98276.44;4405853;32;33862;-85
2021/01/25 01:13:40;;;;;;;49.45;46.60;;;;;;;11.44;33.79;98275.84;4380121;32;34285;-86
2021/01/25 01:16:07;;;;;;;49.47;46.67;;;;;;;11.49;33.26;98271.22;4406147;32;33633;-85
2021/01/25 01:18:35;;;;;;;49.60;46.63;;;;;;;10.62;33.98;98276.97;4392411;32;32760;-85
2021/01/25 01:21:03;;;;;;;49.45;46.65;;;;;;;11.10;33.43;98272.56;4392273;32;34590;-85
2021/01/25 01:23:30;;;;;;;49.08;46.35;;;;;;;11.88;31.57;98266.34;4380126;32;33847;-84
2021/01/25 01:25:58;;;;;;;49.35;46.55;;;;;;;11.57;32.46;98270.75;4379657;32;34693;-86
2021/01/25 01:28:25;;;;;;;49.08;46.28;;;;;;;11.45;32.68;98268.88;4392235;32;32999;-84
2021/01/25 01:30:52;;;;;;;48.65;45.90;;;;;;;11.61;31.85;98267.03;4379268;32;34054;-84
2021/01/25 01:33:19;;;;;;;49.33;46.42;;;;;;;11.49;32.67;98276.41;4392081;32;34517;-85
2021/01/25 01:35:47;;;;;;;49.70;46.80;;;;;;;11.58;32.22;98274.19;4405912;32;35023;-85
2021/01/25 01:38:14;;;;;;;49.08;46.17;;;;;;;11.05;32.98;98272.00;4392080;32;34295;-84
2021/01/25 01:40:41;;;;;;;50.00;46.97;;;;;;;11.08;33.10;98268.38;4379601;32;33403;-86
2021/01/25 01:43:08;;;;;;;49.85;46.75;;;;;;;10.80;33.64;98267.31;4405765;32;34508;-85
2021/01/25 01:45:36;;;;;;;49.88;46.97;;;;;;;11.07;33.39;98269.28;4392110;32;33429;-85
2021/01/25 01:48:04;;;;;;;50.15;47.25;;;;;;;11.38;33.10;98268.41;4391362;32;34364;-85
2021/01/25 01:50:31;;;;;;;49.85;47.03;;;;;;;11.41;32.90;98264.75;4391844;32;35781;-85
2021/01/25 01:52:58;;;;;;;49.25;46.35;;;;;;;11.61;32.86;98256.59;4391954;32;34952;-84
2021/01/25 01:55:26;;;;;;;48.95;46.05;;;;;;;11.23;33.46;98259.66;4391968;32;33757;-84
2021/01/25 01:57:53;;;;;;;49.33;46.53;;;;;;;11.18;33.10;98254.72;4379658;32;33406;-85
2021/01/25 02:00:21;;;;;;;49.85;46.95;;;;;;;11.30;33.22;98263.63;4405314;32;33688;-85
2021/01/25 02:02:48;;;;;;;50.45;47.55;;;;;;;11.26;33.43;98262.13;4391352;32;34996;-85
2021/01/25 02:05:16;;;;;;;50.15;47.25;;;;;;;11.82;32.38;98251.03;4379455;32;33390;-86
2021/01/25 02:07:53;;;;;;;49.30;46.50;;;;;;;11.44;32.88;98251.53;4391710;32;33500;-84
2021/01/25 02:10:21;;;;;;;49.58;46.78;;;;;;;11.52;32.38;98244.94;4381595;32;34485;-85
2021/01/25 02:12:50;;;;;;;49.78;46.92;;;;;;;11.61;32.25;98240.13;4393878;32;33769;-85
2021/01/25 02:15:18;;;;;;;49.67;46.78;;;;;;;11.79;31.44;98240.78;4393815;32;33542;-84
2021/01/25 02:17:50;;;;;;;49.47;46.67;;;;;;;11.48;31.51;98248.66;4393718;32;33436;-86
2021/01/25 02:20:29;;;;;;;49.05;46.25;;;;;;;12.04;30.48;98255.84;4394337;32;34092;-85
2021/01/25 02:23:30;;;;;;;49.38;46.55;;;;;;;11.52;31.59;98265.81;4393807;32;34900;-85
2021/01/25 02:26:09;;;;;;;50.50;47.47;;;;;;;11.45;31.35;98261.06;4406040;32;33699;-85
2021/01/25 02:28:38;;;;;;;49.40;46.60;;;;;;;11.60;31.37;98254.91;4394348;32;33542;-84
2021/01/25 02:31:08;;;;;;;49.67;46.67;;;;;;;11.17;31.68;98262.63;4394023;32;33065;-84
2021/01/25 02:33:41;;;;;;;50.63;47.62;;;;;;;11.28;31.55;98255.03;4394146;32;33905;-84
2021/01/25 02:36:09;;;;;;;49.83;47.03;;;;;;;11.62;31.10;98254.81;4381317;32;33977;-84
2021/01/25 02:38:39;;;;;;;49.35;46.55;;;;;;;11.78;30.95;98249.53;4393820;32;33374;-85
2021/01/25 02:41:07;;;;;;;49.35;46.45;;;;;;;12.11;30.34;98253.69;4381341;32;33781;-84
2021/01/25 02:43:35;;;;;;;50.05;47.05;;;;;;;11.59;31.05;98252.41;4381373;32;33766;-84
2021/01/25 02:46:03;;;;;;;50.12;47.22;;;;;;;11.66;30.96;98254.56;4393601;32;33546;-86
2021/01/25 02:48:30;;;;;;;49.80;46.97;;;;;;;11.38;31.46;98250.13;4381272;32;33594;-86
2021/01/25 02:50:57;;;;;;;49.97;47.08;;;;;;;11.86;30.57;98242.94;4381020;32;33639;-84
2021/01/25 02:53:25;;;;;;;48.72;45.92;;;;;;;11.40;31.31;98248.25;4393760;32;34830;-84
2021/01/25 02:55:53;;;;;;;49.45;46.55;;;;;;;11.28;31.40;98243.78;4381561;32;33530;-85
2021/01/25 02:58:20;;;;;;;48.78;45.97;;;;;;;10.64;32.05;98247.31;4393652;32;33470;-86
2021/01/25 03:00:48;;;;;;;49.53;46.50;;;;;;;11.07;31.93;98248.44;4393779;32;34610;-87
2021/01/25 03:03:16;;;;;;;49.92;47.03;;;;;;;10.81;32.24;98246.38;4382911;32;34856;-84
2021/01/25 03:05:45;;;;;;;49.45;46.55;;;;;;;11.32;31.37;98242.66;4410235;32;33676;-84
2021/01/25 03:08:13;;;;;;;49.78;46.83;;;;;;;11.64;31.04;98251.19;4394597;32;33007;-84
2021/01/25 03:10:40;;;;;;;49.72;46.92;;;;;;;11.13;32.09;98254.16;4368446;32;35784;-85
2021/01/25 03:13:07;;;;;;;49.55;46.75;;;;;;;10.77;32.42;98257.03;4405753;32;33496;-85
2021/01/25 03:15:36;;;;;;;50.20;47.30;;;;;;;11.44;31.68;98254.97;4392950;32;34060;-85
2021/01/25 03:18:03;;;;;;;49.45;46.55;;;;;;;10.90;32.68;98254.59;4405699;32;34114;-85
2021/01/25 03:20:31;;;;;;;50.12;47.22;;;;;;;10.93;32.66;98249.22;4393247;32;34530;-85
2021/01/25 03:22:58;;;;;;;48.90;46.13;;;;;;;11.05;32.36;98255.50;4380787;32;34287;-85
2021/01/25 03:25:25;;;;;;;50.42;47.53;;;;;;;11.03;32.31;98256.44;4373051;32;246865;-84
2021/01/25 03:27:52;;;;;;;49.63;46.83;;;;;;;10.80;32.90;98252.50;4393415;32;33746;-85
2021/01/25 03:30:20;;;;;;;50.67;47.75;;;;;;;11.28;32.36;98242.00;4393383;32;33357;-85
2021/01/25 03:32:47;;;;;;;49.75;46.95;;;;;;;11.18;32.30;98235.63;4407292;32;33507;-85
2021/01/25 03:35:14;;;;;;;49.28;46.47;;;;;;;11.15;32.43;98233.19;4393155;32;33757;-86
2021/01/25 03:37:41;;;;;;;50.25;47.15;;;;;;;11.22;32.09;98239.75;4393723;32;33031;-84
2021/01/25 03:40:09;;;;;;;49.65;46.65;;;;;;;11.38;32.23;98242.31;4393146;32;35133;-85
2021/01/25 03:42:37;;;;;;;50.92;48.03;;;;;;;11.44;32.18;98228.06;4393101;32;33398;-85
2021/01/25 03:45:05;;;;;;;50.35;47.47;;;;;;;11.23;32.60;98237.97;4393717;32;33806;-85
2021/01/25 03:47:32;;;;;;;49.75;46.85;;;;;;;10.92;33.01;98237.12;4393308;32;33359;-84
2021/01/25 03:50:00;;;;;;;49.30;46.50;;;;;;;10.41;33.71;98242.50;4393320;32;33614;-85
2021/01/25 03:52:27;;;;;;;50.85;47.83;;;;;;;10.67;33.54;98254.13;4393019;32;35344;-85
2021/01/25 03:54:54;;;;;;;50.15;47.15;;;;;;;11.22;32.42;98234.53;4405769;32;36118;-85
2021/01/25 03:57:21;;;;;;;50.35;47.42;;;;;;;11.23;32.52;98238.81;4381456;32;34177;-86
2021/01/25 03:59:49;;;;;;;49.97;47.08;;;;;;;11.26;32.28;98249.06;4381177;32;33651;-84
2021/01/25 04:02:16;;;;;;;49.55;46.72;;;;;;;11.11;32.72;98250.78;4407167;32;34353;-84
2021/01/25 04:04:44;;;;;;;51.15;48.25;;;;;;;11.28;32.50;98256.81;4393342;32;34251;-86
2021/01/25 04:07:11;;;;;;;49.90;47.08;;;;;;;11.08;33.04;98263.16;4395637;32;33540;-84
2021/01/25 04:09:39;;;;;;;50.00;47.08;;;;;;;11.13;32.78;98266.34;4400279;32;33785;-83
2021/01/25 04:12:07;;;;;;;51.20;48.05;;;;;;;11.61;32.04;98259.22;4400130;32;34538;-84
2021/01/25 04:14:34;;;;;;;49.55;46.75;;;;;;;11.18;32.90;98264.28;4396494;32;34168;-85
2021/01/25 04:17:02;;;;;;;50.20;47.33;;;;;;;11.77;32.01;98263.53;4381104;32;33422;-86
2021/01/25 04:19:30;;;;;;;50.53;47.62;;;;;;;11.14;32.73;98268.00;4393096;32;35013;-86
2021/01/25 04:21:57;;;;;;;50.30;47.17;;;;;;;11.41;32.61;98267.34;4393093;32;33778;-86
2021/01/25 04:24:24;;;;;;;50.83;47.90;;;;;;;11.26;32.88;98254.28;4406825;32;33673;-85
2021/01/25 04:26:51;;;;;;;49.92;47.03;;;;;;;11.20;32.92;98258.06;4380443;32;35287;-85
2021/01/25 04:29:18;;;;;;;50.83;47.83;;;;;;;11.34;32.90;98257.28;4392410;32;34916;-85
2021/01/25 04:31:46;;;;;;;50.10;47.20;;;;;;;11.25;33.08;98256.97;4405836;32;33773;-86
2021/01/25 04:34:14;;;;;;;49.10;46.30;;;;;;;11.68;32.31;98259.69;4392204;32;34089;-86
2021/01/25 04:36:41;;;;;;;49.38;46.47;;;;;;;11.75;32.34;98250.56;4393031;32;34287;-84
2021/01/25 04:39:08;;;;;;;49.28;46.22;;;;;;;12.01;31.99;98262.09;4392961;32;33637;-86
2021/01/25 04:41:35;;;;;;;49.35;46.55;;;;;;;11.59;32.83;98258.44;4380975;32;34615;-84
2021/01/25 04:44:03;;;;;;;50.92;48.03;;;;;;;11.97;32.30;98265.81;4380384;32;34169;-85
2021/01/25 04:46:30;;;;;;;49.53;46.63;;;;;;;11.57;33.01;98269.91;4392711;32;35117;-84
2021/01/25 04:48:58;;;;;;;50.53;47.47;;;;;;;11.82;32.66;98261.47;4393052;32;34858;-84
2021/01/25 04:51:27;;;;;;;49.78;46.92;;;;;;;11.49;33.40;98267.78;4380738;32;33584;-86
2021/01/25 04:53:57;;;;;;;49.78;46.88;;;;;;;11.77;33.05;98263.53;4392761;32;34304;-85
2021/01/25 04:56:25;;;;;;;49.90;47.10;;;;;;;11.70;33.43;98257.84;4380915;32;34204;-85
2021/01/25 04:58:53;;;;;;;50.10;47.10;;;;;;;11.81;33.12;98258.03;4380334;32;34166;-85
2021/01/25 05:01:20;;;;;;;50.15;47.25;;;;;;;11.95;33.07;98252.03;4380130;32;34993;-85
2021/01/25 05:03:47;;;;;;;51.13;48.22;;;;;;;11.52;33.67;98263.19;4392929;32;33842;-86
2021/01/25 05:06:15;;;;;;;50.00;47.00;;;;;;;11.82;33.31;98259.72;4380486;32;34921;-84
2021/01/25 05:08:42;;;;;;;49.88;46.83;;;;;;;11.69;33.63;98261.38;4392934;32;35325;-86
2021/01/25 05:11:13;;;;;;;50.40;47.50;;;;;;;11.72;33.64;98255.13;4405519;32;33676;-85
2021/01/25 05:13:42;;;;;;;50.58;47.67;;;;;;;11.73;33.61;98262.03;4394304;32;33691;-84
2021/01/25 05:16:20;;;;;;;51.25;48.25;;;;;;;11.21;34.81;98261.53;4399133;32;33448;-84
2021/01/25 05:18:55;;;;;;;50.60;47.67;;;;;;;10.97;35.25;98261.16;4395594;32;33817;-85
2021/01/25 05:21:34;;;;;;;50.10;47.20;;;;;;;11.16;34.87;98260.94;4392420;32;34588;-84
2021/01/25 05:24:05;;;;;;;49.63;46.75;;;;;;;11.63;34.23;98249.53;4379683;32;35580;-85
2021/01/25 05:26:34;;;;;;;49.70;46.70;;;;;;;11.08;35.21;98263.16;4406254;32;33070;-86
2021/01/25 05:29:02;;;;;;;50.72;47.40;;;;;;;11.07;35.22;98262.31;4379746;32;35068;-84
2021/01/25 05:31:30;;;;;;;50.72;47.88;;;;;;;11.34;34.72;98262.50;4392348;32;33486;-85
2021/01/25 05:33:58;;;;;;;49.53;46.63;;;;;;;11.25;35.03;98270.00;4392033;32;33480;-84
2021/01/25 05:36:26;;;;;;;50.22;47.33;;;;;;;11.59;34.33;98263.66;4405721;32;33268;-84
2021/01/25 05:38:54;;;;;;;49.88;47.05;;;;;;;11.66;34.23;98277.19;4379906;32;34659;-85
2021/01/25 05:41:22;;;;;;;50.67;47.47;;;;;;;11.46;34.62;98273.13;4392134;32;34625;-85
2021/01/25 05:43:50;;;;;;;50.20;47.10;;;;;;;10.84;35.84;98274.03;4367624;32;34265;-85
2021/01/25 05:46:19;;;;;;;50.67;47.78;;;;;;;11.63;34.44;98288.69;4394211;32;33834;-84
2021/01/25 05:48:57;;;;;;;50.30;47.38;;;;;;;11.66;34.30;98288.47;4394201;32;34583;-86
2021/01/25 05:51:31;;;;;;;49.92;47.05;;;;;;;11.89;33.94;98290.69;4381783;32;33957;-84
2021/01/25 05:54:02;;;;;;;49.30;46.37;;;;;;;11.95;33.91;98285.97;4394131;32;35719;-85
2021/01/25 05:56:29;;;;;;;50.22;47.25;;;;;;;10.92;35.91;98297.06;4393950;32;34281;-85
2021/01/25 05:58:57;;;;;;;50.12;47.22;;;;;;;10.92;35.87;98294.47;4394475;32;33918;-86
2021/01/25 06:01:26;;;;;;;49.90;47.00;;;;;;;11.51;34.94;98292.84;4394322;32;34220;-85
2021/01/25 06:03:55;;;;;;;50.40;47.50;;;;;;;11.51;34.83;98300.66;4394881;32;34554;-86
2021/01/25 06:06:27;;;;;;;49.95;47.10;;;;;;;10.81;36.11;98306.31;4381994;32;33246;-85
2021/01/25 06:09:21;;;;;;;50.65;47.75;;;;;;;11.45;34.97;98301.00;4382040;32;33730;-86
2021/01/25 06:11:48;;;;;;;50.55;47.62;;;;;;;11.33;35.37;98309.53;4389817;32;33888;-85
2021/01/25 06:14:27;;;;;;;50.60;47.60;;;;;;;11.35;35.27;98318.94;4382079;32;33537;-85
2021/01/25 06:16:56;;;;;;;51.05;48.15;;;;;;;11.60;34.63;98333.19;4407888;32;33157;-83
2021/01/25 06:19:26;;;;;;;51.63;48.53;;;;;;;11.83;34.28;98324.03;4408621;32;33958;-83
2021/01/25 06:21:53;;;;;;;52.00;49.10;;;;;;;11.88;34.33;98335.97;4401716;32;34467;-82
2021/01/25 06:24:21;;;;;;;50.78;47.67;;;;;;;11.92;34.21;98340.91;4402278;32;34591;-84
2021/01/25 06:26:49;;;;;;;50.88;47.97;;;;;;;11.86;34.34;98346.50;4388986;32;33412;-84
2021/01/25 06:29:20;;;;;;;52.05;48.95;;;;;;;11.22;35.90;98353.59;4394651;32;34930;-86
2021/01/25 06:31:56;;;;;;;51.53;48.53;;;;;;;11.16;35.94;98365.22;4380842;32;34271;-88
2021/01/25 06:34:26;;;;;;;56.85;52.92;;;;;;;11.34;35.67;98372.03;4393023;32;34157;-87
2021/01/25 06:36:57;;;;;;;50.78;47.75;;;;;;;11.35;35.92;98375.47;4380845;32;32764;-87
2021/01/25 06:39:33;;;;;;;52.20;49.20;;;;;;;11.92;34.59;98371.38;4381215;32;33925;-88
2021/01/25 06:42:01;;;;;;;52.00;49.03;;;;;;;11.38;35.45;98385.75;4392854;32;33355;-87
2021/01/25 06:44:35;;;;;;;51.70;48.60;;;;;;;11.58;35.65;98384.63;4393290;32;34051;-87
2021/01/25 06:47:08;;;;;;;51.33;48.33;;;;;;;11.45;36.46;98387.06;4381350;32;34739;-86
2021/01/25 06:49:37;;;;;;;50.55;47.45;;;;;;;11.42;36.16;98391.59;4406809;32;33839;-87
2021/01/25 06:52:08;;;;;;;51.95;48.87;;;;;;;11.32;36.21;98397.34;4380662;32;34346;-86
2021/01/25 06:54:44;;;;;;;52.97;49.78;;;;;;;11.43;36.12;98401.13;4380668;32;33789;-87
2021/01/25 06:57:26;;;;;;;53.28;50.10;;;;;;;11.45;35.41;98397.50;4380097;32;34158;-86
2021/01/25 06:59:57;;;;;;;51.55;48.30;;;;;;;11.52;35.48;98398.00;4368730;32;33295;-87
2021/01/25 07:02:28;;;;;;;52.62;49.60;;;;;;;12.00;34.71;98401.34;4381439;32;34487;-86
2021/01/25 07:04:58;;;;;;;52.22;49.13;;;;;;;12.24;34.59;98405.25;4406838;32;33498;-86
2021/01/25 07:07:31;;;;;;;51.67;48.72;;;;;;;9.90;38.83;98414.28;4381307;32;33550;-87
2021/01/25 07:10:04;;;;;;;52.50;49.20;;;;;;;11.46;36.25;98419.19;4392934;32;35429;-87
2021/01/25 07:12:32;;;;;;;;;;;;;;;11.56;36.36;98409.94;4380523;32;33553;-87
2021/01/25 07:15:00;;;;;;;51.17;48.15;;;;;;;11.20;36.40;98417.09;4393421;32;34880;-87
2021/01/25 07:17:31;;;;;;;53.72;50.53;;;;;;;10.68;38.12;98417.28;4407110;32;34149;-87
2021/01/25 07:19:58;;;;;;;54.00;50.92;;;;;;;11.64;36.08;98428.59;4381046;32;32815;-87
2021/01/25 07:22:30;;;;;;;52.22;48.83;;;;;;;11.59;35.50;98422.78;4381536;32;33627;-86
2021/01/25 07:24:59;;;;;;;52.35;49.22;;;;;;;10.26;38.77;98422.00;4382528;32;33771;-87
2021/01/25 07:27:34;;;;;;;51.58;48.58;;;;;;;10.16;38.43;98426.81;4398400;32;34301;-85
2021/01/25 07:30:05;;;;;;;62.17;57.28;;;;;;;10.97;37.15;98423.56;4381171;32;34990;-87
2021/01/25 07:32:33;;;;;;;;;;;;;;;11.16;36.72;98427.78;4393233;32;33496;-87
2021/01/25 07:35:03;;;;;;;53.13;49.75;;;;;;;11.19;36.93;98427.62;4394665;32;33797;-88
2021/01/25 07:37:31;;;;;;;51.67;48.67;;;;;;;11.01;37.27;98434.69;4405279;32;32529;-88
2021/01/25 07:40:01;;;;;;;50.28;47.28;;;;;;;11.14;36.61;98429.63;4421818;32;33441;-86
2021/01/25 07:42:34;;;;;;;50.92;47.92;;;;;;;10.07;38.73;98429.06;4406890;32;33313;-87
2021/01/25 07:45:05;;;;;;;50.72;47.40;;;;;;;10.40;38.09;98443.91;4407995;32;34118;-87
2021/01/25 07:47:36;;;;;;;51.63;48.53;;;;;;;10.61;37.88;98442.81;4395405;32;34011;-87
2021/01/25 07:50:08;;;;;;;50.12;47.22;;;;;;;10.73;37.84;98450.91;4407514;32;33629;-87
2021/01/25 07:52:40;;;;;;;52.55;49.45;;;;;;;9.79;40.03;98448.63;4407847;32;34390;-86
2021/01/25 07:55:15;;;;;;;52.80;49.50;;;;;;;10.04;39.27;98448.28;4390703;32;33072;-86
2021/01/25 07:57:45;;;;;;;51.03;48.03;;;;;;;9.51;40.81;98449.94;4406796;32;33368;-86
2021/01/25 08:00:23;;;;;;;50.53;47.53;;;;;;;10.72;38.27;98444.03;4405445;32;33630;-86
2021/01/25 08:03:01;;;;;;;51.47;48.47;;;;;;;10.99;37.55;98458.19;4393036;32;33064;-87
2021/01/25 08:05:29;;;;;;;52.05;48.95;;;;;;;11.03;37.29;98453.66;4392953;32;34038;-86
2021/01/25 08:08:11;;;;;;;51.75;48.67;;;;;;;11.44;36.63;98454.97;4394163;32;34126;-87
2021/01/25 08:10:39;;;;;;;51.13;48.03;;;;;;;11.07;37.39;98462.16;4392999;32;32528;-85
2021/01/25 08:13:16;;;;;;;52.28;49.08;;;;;;;11.06;37.19;98460.47;4405216;32;33764;-87
2021/01/25 08:15:54;;;;;;;52.10;49.00;;;;;;;10.89;37.67;98467.44;4406464;32;34097;-85
2021/01/25 08:18:42;;;;;;;50.95;47.83;;;;;;;10.18;39.20;98464.06;4404589;32;33440;-86
2021/01/25 08:21:20;;;;;;;52.53;49.33;;;;;;;9.49;40.52;98462.16;4405267;32;34108;-86
2021/01/25 08:23:49;;;;;;;51.85;48.75;;;;;;;9.05;41.55;98478.88;4418021;32;33689;-86
2021/01/25 08:26:27;;;;;;;51.70;48.40;;;;;;;9.80;40.22;98486.72;4393738;32;33914;-86
2021/01/25 08:29:11;;;;;;;52.03;48.78;;;;;;;9.39;41.27;98490.34;4398827;32;33329;-85
2021/01/25 08:31:43;;;;;;;51.35;48.28;;;;;;;10.09;39.71;98487.94;4411522;32;32495;-86
2021/01/25 08:34:31;;;;;;;51.25;48.17;;;;;;;9.67;41.26;98482.09;4398998;32;34923;-87
2021/01/25 08:37:08;;;;;;;51.53;48.47;;;;;;;10.06;40.21;98487.22;4421203;32;34593;-86
2021/01/25 08:39:42;;;;;;;51.08;48.08;;;;;;;10.42;39.22;98487.19;4420260;32;33321;-86
2021/01/25 08:42:21;;;;;;;52.92;49.83;;;;;;;10.81;38.47;98487.81;4407313;32;34179;-86
2021/01/25 08:44:52;;;;;;;50.70;47.50;;;;;;;10.94;38.68;98488.03;4419662;32;34515;-86
2021/01/25 08:47:25;;;;;;;51.22;48.22;;;;;;;10.16;39.84;98493.66;4407314;32;34233;-86
2021/01/25 08:49:56;;;;;;;52.00;48.75;;;;;;;11.49;37.10;98495.50;4395965;32;33173;-87
2021/01/25 08:52:32;;;;;;;51.35;48.35;;;;;;;10.43;38.96;98495.84;4407104;32;35411;-87
2021/01/25 08:55:12;;;;;;;50.83;47.72;;;;;;;11.17;37.60;98505.91;4419699;32;33956;-86
2021/01/25 08:57:42;;;;;;;52.15;49.05;;;;;;;10.40;39.21;98520.28;4394858;32;34651;-86
2021/01/25 09:00:18;;;;;;;58.00;53.75;;;;;;;9.44;41.03;98509.19;4407496;32;34318;-86
2021/01/25 09:02:47;;;;;;;56.67;53.05;;;;;;;11.17;37.92;98508.50;4381903;32;35362;-86
2021/01/25 09:05:15;;;;;;;51.17;48.08;;;;;;;10.24;39.59;98524.50;4406776;32;33082;-87
2021/01/25 09:07:42;;;;;;;50.72;47.80;;;;;;;11.09;37.80;98526.34;4394556;32;34393;-88
2021/01/25 09:10:11;;;;;;;53.10;50.03;;;;;;;11.56;37.20;98524.72;4407516;32;33294;-87
2021/01/25 09:12:46;;;;;;;55.65;52.45;;;;;;;12.48;35.67;98516.09;4407356;32;34737;-88
2021/01/25 09:15:16;;;;;;;53.03;49.30;;;;;;;12.27;35.56;98522.56;4395163;32;33902;-88
2021/01/25 09:17:47;;;;;;;55.65;51.95;;;;;;;12.78;34.86;98517.00;4407421;32;34239;-86
2021/01/25 09:20:15;;;;;;;52.28;49.17;;;;;;;12.79;34.22;98519.53;4407829;32;34285;-86
2021/01/25 09:22:42;;;;;;;51.75;48.75;;;;;;;12.77;33.88;98521.38;4408581;32;32855;-85
2021/01/25 09:25:14;;;;;;;51.13;48.00;;;;;;;11.50;36.58;98525.03;4408769;32;32937;-85
2021/01/25 09:27:43;;;;;;;52.20;49.08;;;;;;;12.57;35.20;98519.12;4395860;32;33303;-86
2021/01/25 09:30:13;;;;;;;53.33;50.12;;;;;;;13.23;34.12;98509.94;4408882;32;31181;-87
2021/01/25 09:32:41;;;;;;;53.35;50.35;;;;;;;13.63;33.02;98512.69;4395486;32;33429;-87
2021/01/25 09:35:13;;;;;;;53.10;49.80;;;;;;;13.03;33.46;98517.22;4411619;32;33841;-86
2021/01/25 09:37:41;;;;;;;52.15;49.13;;;;;;;11.49;36.12;98520.75;4416526;32;34019;-85
2021/01/25 09:40:10;;;;;;;52.00;48.90;;;;;;;12.52;34.84;98522.84;4413014;32;33287;-88
2021/01/25 09:42:38;;;;;;;51.50;48.40;;;;;;;11.57;36.38;98523.78;4396032;32;34091;-86
2021/01/25 09:45:11;;;;;;;51.13;47.85;;;;;;;11.53;36.46;98530.94;4409257;32;33528;-87
2021/01/25 09:47:39;;;;;;;50.97;48.08;;;;;;;12.20;35.56;98529.91;4395730;32;33989;-87
2021/01/25 09:50:13;;;;;;;51.00;47.90;;;;;;;12.11;35.31;98525.22;4408571;32;33833;-87
2021/01/25 09:52:42;;;;;;;52.15;49.13;;;;;;;11.79;36.06;98535.66;4408601;32;34323;-87
2021/01/25 09:55:10;;;;;;;51.08;48.08;;;;;;;11.26;37.07;98529.81;4395973;32;32811;-87
2021/01/25 09:57:38;;;;;;;50.25;47.15;;;;;;;12.22;36.05;98535.91;4421049;32;34453;-85
2021/01/25 10:00:08;;;;;;;51.35;48.20;;;;;;;12.07;36.25;98529.75;4408788;32;33697;-87
2021/01/25 10:02:35;;;;;;;52.78;49.60;;;;;;;13.16;33.82;98526.91;4408412;32;34627;-85
2021/01/25 10:05:05;;;;;;;51.65;48.55;;;;;;;13.62;33.10;98528.50;4395630;32;35460;-87
2021/01/25 10:07:35;;;;;;;52.05;48.47;;;;;;;13.44;33.06;98517.41;4395504;32;34308;-86
2021/01/25 10:10:05;;;;;;;52.35;48.90;;;;;;;13.65;33.10;98509.97;4421299;32;33021;-87
2021/01/25 10:12:32;;;;;;;52.30;48.97;;;;;;;13.79;32.03;98509.94;4405452;32;35036;-87
2021/01/25 10:14:59;;;;;;;51.70;47.95;;;;;;;13.97;31.87;98509.69;4405814;32;33818;-86
2021/01/25 10:17:30;;;;;;;50.45;47.55;;;;;;;13.81;32.01;98510.72;4393582;32;33365;-85
2021/01/25 10:19:57;;;;;;;51.30;48.20;;;;;;;13.18;33.36;98511.97;4406038;32;33494;-87
2021/01/25 10:22:25;;;;;;;52.17;48.90;;;;;;;13.90;32.06;98504.03;4418519;32;33640;-86
2021/01/25 10:24:52;;;;;;;50.83;47.70;;;;;;;13.79;32.11;98507.34;4410393;32;35000;-86
2021/01/25 10:27:19;;;;;;;50.67;47.67;;;;;;;13.32;32.46;98504.12;4410541;32;33634;-85
2021/01/25 10:29:50;;;;;;;50.85;47.88;;;;;;;13.78;31.77;98510.06;4419904;32;33969;-84
2021/01/25 10:32:25;;;;;;;52.15;49.05;;;;;;;13.06;33.04;98507.50;4406396;32;37195;-85
2021/01/25 10:34:52;;;;;;;51.15;48.15;;;;;;;13.39;32.56;98515.09;4381775;32;35845;-86
2021/01/25 10:37:19;;;;;;;51.10;48.10;;;;;;;14.41;30.56;98515.59;4405852;32;33729;-87
2021/01/25 10:39:47;;;;;;;55.28;51.30;;;;;;;14.39;30.34;98512.25;4405812;32;33955;-87
2021/01/25 10:42:15;;;;;;;56.90;52.97;;;;;;;14.49;30.47;98513.28;4406125;32;34188;-88
2021/01/25 10:44:42;;;;;;;53.05;49.83;;;;;;;14.88;29.79;98524.69;4407457;32;34449;-85
2021/01/25 10:47:14;;;;;;;52.62;49.20;;;;;;;15.09;29.69;98526.78;4425805;32;34713;-85
2021/01/25 10:49:48;;;;;;;50.70;47.30;;;;;;;15.48;28.59;98520.53;4413745;32;33584;-86
2021/01/25 10:52:16;;;;;;;51.28;48.28;;;;;;;15.44;28.75;98528.75;4393122;32;35353;-87
2021/01/25 10:54:43;;;;;;;50.95;48.05;;;;;;;14.75;30.04;98516.00;4405527;32;35041;-88
2021/01/25 10:57:11;;;;;;;51.40;48.50;;;;;;;14.79;29.73;98522.72;4419190;32;33771;-87
2021/01/25 10:59:41;;;;;;;52.38;49.03;;;;;;;14.72;30.03;98526.66;4406697;32;33575;-88
2021/01/25 11:02:08;;;;;;;51.80;48.58;;;;;;;15.06;29.66;98513.88;4407180;32;33252;-87
2021/01/25 11:04:35;;;;;;;50.97;47.97;;;;;;;15.20;29.45;98511.97;4418197;32;35869;-89
2021/01/25 11:07:03;;;;;;;50.80;47.80;;;;;;;14.78;29.92;98519.22;4405647;32;34440;-86
2021/01/25 11:09:30;;;;;;;54.05;50.35;;;;;;;14.79;30.14;98509.59;4406184;32;33811;-85
2021/01/25 11:12:00;;;;;;;51.30;48.25;;;;;;;15.02;29.52;98521.13;4406031;32;33170;-88
2021/01/25 11:14:29;;;;;;;56.55;52.78;;;;;;;15.55;28.72;98525.38;4417764;32;33906;-86
2021/01/25 11:16:57;;;;;;;55.95;52.42;;;;;;;14.52;29.60;98515.72;4402428;32;33761;-87
2021/01/25 11:19:25;;;;;;;53.13;49.95;;;;;;;15.14;28.55;98516.81;4408229;32;32503;-88
2021/01/25 11:21:53;;;;;;;54.60;51.37;;;;;;;15.59;28.36;98521.56;4420971;32;33809;-87
2021/01/25 11:24:29;;;;;;;53.90;50.45;;;;;;;15.51;28.61;98524.75;4408704;32;33549;-86
2021/01/25 11:27:03;;;;;;;52.15;48.87;;;;;;;14.98;29.45;98536.25;4420280;32;34634;-85
2021/01/25 11:29:35;;;;;;;53.10;49.78;;;;;;;15.19;29.26;98527.84;4421295;32;34699;-87